createdAt,value
2023-04-11T00:02:34.891Z,6.32
2023-04-11T00:05:37.034Z,6.27
2023-04-11T00:08:39.141Z,6.20
2023-04-11T00:11:41.258Z,6.12
2023-04-11T00:14:49.009Z,6.08
2023-04-11T00:17:51.225Z,6.11
2023-04-11T00:20:53.200Z,6.05
2023-04-11T00:23:55.723Z,5.94
2023-04-11T00:26:58.433Z,5.87
2023-04-11T00:30:00.819Z,5.85
2023-04-11T00:33:04.049Z,5.87
2023-04-11T00:36:06.531Z,5.79
2023-04-11T00:39:13.215Z,5.77
2023-04-11T00:42:15.321Z,5.72
2023-04-11T00:45:17.285Z,5.81
2023-04-11T00:48:19.392Z,6.04
2023-04-11T00:51:22.156Z,6.09
2023-04-11T00:54:29.230Z,6.05
2023-04-11T00:57:32.297Z,5.96
2023-04-11T01:00:35.561Z,5.90
2023-04-11T01:03:39.484Z,5.83
2023-04-11T01:06:41.801Z,5.76
2023-04-11T01:09:45.268Z,5.76
2023-04-11T01:12:47.717Z,5.71
2023-04-11T01:15:49.548Z,5.71
2023-04-11T01:18:51.742Z,5.65
2023-04-11T01:21:56.023Z,5.65
2023-04-11T01:24:57.958Z,5.58
2023-04-11T01:27:59.929Z,5.57
2023-04-11T01:31:01.962Z,5.50
2023-04-11T01:34:04.640Z,5.43
2023-04-11T01:37:06.868Z,5.34
2023-04-11T01:40:09.575Z,5.32
2023-04-11T01:43:12.303Z,5.25
2023-04-11T01:46:15.627Z,5.18
2023-04-11T01:49:18.850Z,5.13
2023-04-11T01:52:21.151Z,5.14
2023-04-11T01:55:23.118Z,5.01
2023-04-11T01:58:25.024Z,4.84
2023-04-11T02:01:28.219Z,4.74
2023-04-11T02:04:30.124Z,4.72
2023-04-11T02:07:32.033Z,4.75
2023-04-11T02:10:35.678Z,4.64
2023-04-11T02:13:38.171Z,4.49
2023-04-11T02:16:56.461Z,4.45
2023-04-11T02:19:58.450Z,4.29
2023-04-11T02:23:04.369Z,4.15
2023-04-11T02:26:06.459Z,3.94
2023-04-11T02:29:08.602Z,3.83
2023-04-11T02:32:10.723Z,3.79
2023-04-11T02:35:12.852Z,3.75
2023-04-11T02:38:15.202Z,3.71
2023-04-11T02:41:17.158Z,3.80
2023-04-11T02:44:19.822Z,3.89
2023-04-11T02:47:22.137Z,3.81
2023-04-11T02:50:27.103Z,3.73
2023-04-11T02:53:29.250Z,3.51
2023-04-11T02:56:31.717Z,3.50
2023-04-11T02:59:33.902Z,3.59
2023-04-11T03:02:36.192Z,3.62
2023-04-11T03:05:38.861Z,3.71
2023-04-11T03:08:41.223Z,3.81
2023-04-11T03:11:43.984Z,3.91
2023-04-11T03:14:47.048Z,4.02
2023-04-11T03:17:49.058Z,4.17
2023-04-11T03:20:52.274Z,4.39
2023-04-11T03:23:54.368Z,4.75
2023-04-11T03:26:57.778Z,4.97
2023-04-11T03:29:59.661Z,5.13
2023-04-11T03:33:01.902Z,5.28
2023-04-11T03:36:04.755Z,5.20
2023-04-11T03:39:06.639Z,5.21
2023-04-11T03:42:08.666Z,5.31
2023-04-11T03:45:11.358Z,5.39
2023-04-11T03:48:13.337Z,5.49
2023-04-11T03:51:15.518Z,5.62
2023-04-11T03:54:18.010Z,5.74
2023-04-11T03:57:19.835Z,5.82
2023-04-11T04:00:21.790Z,5.90
2023-04-11T04:03:23.978Z,5.88
2023-04-11T04:06:27.138Z,5.93
2023-04-11T04:09:29.115Z,6.02
2023-04-11T04:12:31.139Z,6.01
2023-04-11T04:15:33.895Z,6.05
2023-04-11T04:18:36.228Z,6.14
2023-04-11T04:21:38.239Z,6.19
2023-04-11T04:24:42.246Z,6.32
2023-04-11T04:27:44.528Z,6.53
2023-04-11T04:30:54.410Z,7.21
2023-04-11T04:33:58.735Z,7.70
2023-04-11T04:37:02.110Z,8.08
2023-04-11T04:40:13.214Z,8.01
2023-04-11T04:43:18.818Z,7.17
2023-04-11T04:46:20.573Z,7.08
2023-04-11T04:49:23.143Z,6.70
2023-04-11T04:52:25.985Z,6.73
2023-04-11T04:55:28.986Z,6.85
2023-04-11T04:58:31.284Z,6.98
2023-04-11T05:01:33.402Z,6.94
2023-04-11T05:04:35.424Z,6.75
2023-04-11T05:07:37.370Z,6.74
2023-04-11T05:10:39.975Z,6.78
2023-04-11T05:13:42.092Z,6.76
2023-04-11T05:16:44.396Z,6.76
2023-04-11T05:19:46.298Z,6.72
2023-04-11T05:22:49.504Z,6.69
2023-04-11T05:25:51.537Z,6.81
2023-04-11T05:28:53.484Z,6.81
2023-04-11T05:31:55.411Z,6.89
2023-04-11T05:34:59.398Z,7.05
2023-04-11T05:38:01.795Z,8.80
2023-04-11T05:41:04.254Z,9.45
2023-04-11T05:44:06.584Z,9.76
2023-04-11T05:47:08.429Z,9.04
2023-04-11T05:50:11.070Z,10.66
2023-04-11T05:53:13.344Z,11.04
2023-04-11T05:56:15.288Z,10.34
2023-04-11T05:59:21.030Z,11.00
2023-04-11T06:02:28.041Z,11.94
2023-04-11T06:05:31.555Z,12.85
2023-04-11T06:08:34.434Z,13.17
2023-04-11T06:11:36.571Z,12.81
2023-04-11T06:14:40.688Z,13.53
2023-04-11T06:17:42.939Z,13.83
2023-04-11T06:20:47.134Z,13.70
2023-04-11T06:23:49.163Z,12.51
2023-04-11T06:26:50.986Z,13.35
2023-04-11T06:29:52.995Z,12.45
2023-04-11T06:32:56.579Z,14.42
2023-04-11T06:35:58.528Z,14.51
2023-04-11T06:39:00.470Z,14.41
2023-04-11T06:42:03.303Z,14.06
2023-04-11T06:45:06.299Z,14.74
2023-04-11T06:48:08.315Z,15.70
2023-04-11T06:51:10.662Z,16.06
2023-04-11T06:54:13.171Z,16.74
2023-04-11T06:57:15.092Z,17.16
2023-04-11T07:00:17.613Z,17.99
2023-04-11T07:03:19.948Z,17.21
2023-04-11T07:06:22.102Z,17.16
2023-04-11T07:09:24.047Z,17.32
2023-04-11T07:12:26.057Z,16.73
2023-04-11T07:15:28.558Z,17.28
2023-04-11T07:18:31.230Z,18.25
2023-04-11T07:21:33.483Z,18.61
2023-04-11T07:24:35.637Z,18.16
2023-04-11T07:27:37.565Z,18.57
2023-04-11T07:30:39.576Z,18.80
2023-04-11T07:33:44.476Z,19.62
2023-04-11T07:36:46.391Z,19.71
2023-04-11T07:39:48.957Z,19.51
2023-04-11T07:42:50.864Z,19.39
2023-04-11T07:45:54.346Z,17.55
2023-04-11T07:48:56.310Z,18.63
2023-04-11T07:51:58.281Z,18.29
2023-04-11T07:55:00.240Z,16.57
2023-04-11T07:58:02.181Z,15.15
2023-04-11T08:01:05.561Z,15.59
2023-04-11T08:04:07.648Z,16.53
2023-04-11T08:07:09.753Z,18.03
2023-04-11T08:10:11.848Z,17.71
2023-04-11T08:13:13.835Z,19.00
2023-04-11T08:16:16.071Z,19.88
2023-04-11T08:19:22.642Z,20.26
2023-04-11T08:22:30.076Z,20.89
2023-04-11T08:25:33.279Z,20.57
2023-04-11T08:28:35.976Z,21.56
2023-04-11T08:31:47.415Z,22.08
2023-04-11T08:34:49.419Z,20.78
2023-04-11T08:37:51.397Z,20.04
2023-04-11T08:40:54.771Z,21.06
2023-04-11T08:43:58.240Z,21.40
2023-04-11T08:47:00.407Z,21.42
2023-04-11T08:50:02.384Z,22.27
2023-04-11T08:53:05.054Z,21.75
2023-04-11T08:56:13.986Z,21.58
2023-04-11T08:59:17.602Z,20.49
2023-04-11T09:02:19.750Z,21.06
2023-04-11T09:05:29.226Z,20.42
2023-04-11T09:08:38.657Z,19.14
2023-04-11T09:11:54.956Z,19.07
2023-04-11T09:14:57.287Z,17.90
2023-04-11T09:18:00.900Z,17.55
2023-04-11T09:21:06.913Z,16.44
2023-04-11T09:24:18.307Z,16.10
2023-04-11T09:27:24.482Z,15.33
2023-04-11T09:30:26.763Z,15.59
2023-04-11T09:33:30.011Z,15.36
2023-04-11T09:36:31.949Z,15.16
2023-04-11T09:39:33.950Z,14.25
2023-04-11T09:42:36.058Z,14.53
2023-04-11T09:45:47.696Z,14.91
2023-04-11T09:48:56.624Z,14.80
2023-04-11T09:52:00.820Z,14.30
2023-04-11T09:55:04.792Z,14.33
2023-04-11T09:58:10.537Z,14.40
2023-04-11T10:01:14.152Z,14.14
2023-04-11T10:04:16.516Z,14.18
2023-04-11T10:07:19.712Z,13.52
2023-04-11T10:10:25.009Z,13.52
2023-04-11T10:13:46.603Z,13.21
2023-04-11T10:17:25.466Z,13.72
2023-04-11T10:20:50.329Z,13.45
2023-04-11T10:24:18.196Z,12.97
2023-04-11T10:28:04.123Z,12.50
2023-04-11T10:31:13.049Z,12.95
2023-04-11T10:34:15.360Z,12.60
2023-04-11T10:37:35.744Z,12.99
2023-04-11T10:41:19.171Z,12.70
2023-04-11T10:44:21.489Z,12.87
2023-04-11T10:47:26.189Z,12.72
2023-04-11T10:50:28.588Z,12.62
2023-04-11T10:53:36.636Z,12.78
2023-04-11T10:56:54.673Z,12.97
2023-04-11T10:59:57.365Z,12.63
2023-04-11T11:03:01.466Z,12.58
2023-04-11T11:06:05.073Z,12.61
2023-04-11T11:09:23.583Z,12.34
2023-04-11T11:12:25.705Z,12.49
2023-04-11T11:15:27.516Z,12.42
2023-04-11T11:18:29.457Z,12.09
2023-04-11T11:21:34.731Z,12.18
2023-04-11T11:24:36.734Z,12.43
2023-04-11T11:27:38.578Z,13.06
2023-04-11T11:30:55.122Z,13.36
2023-04-11T11:34:04.766Z,13.44
2023-04-11T11:37:18.300Z,14.86
2023-04-11T11:40:24.738Z,17.04
2023-04-11T11:43:27.872Z,17.09
2023-04-11T11:46:31.784Z,15.58
2023-04-11T11:49:52.993Z,15.06
2023-04-11T11:52:55.531Z,14.41
2023-04-11T11:55:57.716Z,13.84
2023-04-11T11:58:59.711Z,13.55
2023-04-11T12:02:03.362Z,13.35
2023-04-11T12:05:08.171Z,13.56
2023-04-11T12:08:11.062Z,13.54
2023-04-11T12:11:18.337Z,14.98
2023-04-11T12:14:23.548Z,14.14
2023-04-11T12:17:25.254Z,13.59
2023-04-11T12:20:27.494Z,13.08
2023-04-11T12:23:29.468Z,12.98
2023-04-11T12:26:31.884Z,14.78
2023-04-11T12:29:33.830Z,15.22
2023-04-11T12:32:36.339Z,13.46
2023-04-11T12:35:44.902Z,13.12
2023-04-11T12:38:47.056Z,12.87
2023-04-11T12:41:48.978Z,13.92
2023-04-11T12:44:51.538Z,14.29
2023-04-11T12:47:54.032Z,14.80
2023-04-11T12:50:56.437Z,14.67
2023-04-11T12:53:58.374Z,14.46
2023-04-11T12:57:00.242Z,14.15
2023-04-11T13:00:07.463Z,14.00
2023-04-11T13:03:09.596Z,13.98
2023-04-11T13:06:12.002Z,13.69
2023-04-11T13:09:14.765Z,13.79
2023-04-11T13:12:16.998Z,13.56
2023-04-11T13:15:19.077Z,13.31
2023-04-11T13:18:21.624Z,13.48
2023-04-11T13:21:28.278Z,13.56
2023-04-11T13:24:32.077Z,13.88
2023-04-11T13:27:35.503Z,14.31
2023-04-11T13:30:37.785Z,14.48
2023-04-11T13:33:44.740Z,13.80
2023-04-11T13:36:46.760Z,13.77
2023-04-11T13:39:48.903Z,13.95
2023-04-11T13:42:52.173Z,13.47
2023-04-11T13:45:54.153Z,13.31
2023-04-11T13:48:56.274Z,12.92
2023-04-11T13:51:58.413Z,12.74
2023-04-11T13:55:00.437Z,12.81
2023-04-11T13:58:02.335Z,12.96
2023-04-11T14:01:04.892Z,12.99
2023-04-11T14:04:06.939Z,12.93
2023-04-11T14:07:08.868Z,13.20
2023-04-11T14:10:11.408Z,13.19
2023-04-11T14:13:14.153Z,13.25
2023-04-11T14:16:16.232Z,12.96
2023-04-11T14:19:18.478Z,13.36
2023-04-11T14:22:20.685Z,13.39
2023-04-11T14:25:22.879Z,13.46
2023-04-11T14:28:26.461Z,13.19
2023-04-11T14:31:28.721Z,13.27
2023-04-11T14:34:30.859Z,13.32
2023-04-11T14:37:33.140Z,13.04
2023-04-11T14:40:35.156Z,12.84
2023-04-11T14:43:37.045Z,12.64
2023-04-11T14:46:39.039Z,12.47
2023-04-11T14:49:41.176Z,12.37
2023-04-11T14:52:43.220Z,12.31
2023-04-11T14:55:48.574Z,12.36
2023-04-11T14:58:51.652Z,12.55
2023-04-11T15:01:53.646Z,12.25
2023-04-11T15:04:56.713Z,12.29
2023-04-11T15:07:58.682Z,12.36
2023-04-11T15:11:00.669Z,12.22
2023-04-11T15:14:02.898Z,12.29
2023-04-11T15:17:04.784Z,12.34
2023-04-11T15:20:09.071Z,12.34
2023-04-11T15:23:11.438Z,12.39
2023-04-11T15:26:13.452Z,12.38
2023-04-11T15:29:18.304Z,12.45
2023-04-11T15:32:20.113Z,12.51
2023-04-11T15:35:22.019Z,12.57
2023-04-11T15:38:24.122Z,12.41
2023-04-11T15:41:26.208Z,12.39
2023-04-11T15:44:28.260Z,12.17
2023-04-11T15:47:30.491Z,12.11
2023-04-11T15:50:32.771Z,11.92
2023-04-11T15:53:34.685Z,11.90
2023-04-11T15:56:36.901Z,11.84
2023-04-11T15:59:41.292Z,11.94
2023-04-11T16:02:47.398Z,11.73
2023-04-11T16:05:50.904Z,11.65
2023-04-11T16:08:52.759Z,11.74
2023-04-11T16:11:56.754Z,11.73
2023-04-11T16:14:58.749Z,11.78
2023-04-11T16:18:00.730Z,11.70
2023-04-11T16:21:02.829Z,11.65
2023-04-11T16:24:05.399Z,11.62
2023-04-11T16:27:07.438Z,11.69
2023-04-11T16:30:09.847Z,11.61
2023-04-11T16:33:13.852Z,11.63
2023-04-11T16:36:16.953Z,11.59
2023-04-11T16:39:19.256Z,11.59
2023-04-11T16:42:21.235Z,11.47
2023-04-11T16:45:23.878Z,11.28
2023-04-11T16:48:25.829Z,11.24
2023-04-11T16:51:28.460Z,11.20
2023-04-11T16:54:30.908Z,11.05
2023-04-11T16:57:33.402Z,10.91
2023-04-11T17:00:36.306Z,10.90
2023-04-11T17:03:38.872Z,10.79
2023-04-11T17:06:41.385Z,10.78
2023-04-11T17:09:43.249Z,10.63
2023-04-11T17:12:45.289Z,10.59
2023-04-11T17:15:47.184Z,10.55
2023-04-11T17:18:49.327Z,10.50
2023-04-11T17:21:51.229Z,10.42
2023-04-11T17:24:53.775Z,10.42
2023-04-11T17:27:56.780Z,10.46
2023-04-11T17:31:00.014Z,10.43
2023-04-11T17:34:04.400Z,10.39
2023-04-11T17:37:06.626Z,10.32
2023-04-11T17:40:12.834Z,10.19
2023-04-11T17:43:14.737Z,10.18
2023-04-11T17:46:16.964Z,10.20
2023-04-11T17:49:19.919Z,10.11
2023-04-11T17:52:22.465Z,10.06
2023-04-11T17:55:24.465Z,9.97
2023-04-11T17:58:26.536Z,9.93
2023-04-11T18:01:32.384Z,9.84
2023-04-11T18:04:35.316Z,9.76
2023-04-11T18:07:54.236Z,9.75
2023-04-11T18:10:56.662Z,9.69
2023-04-11T18:13:58.976Z,9.69
2023-04-11T18:17:01.169Z,9.63
2023-04-11T18:20:12.261Z,9.51
2023-04-11T18:23:14.249Z,9.43
2023-04-11T18:26:16.269Z,9.38
2023-04-11T18:29:18.354Z,9.44
2023-04-11T18:32:23.672Z,9.30
2023-04-11T18:35:29.344Z,9.27
2023-04-11T18:38:33.382Z,9.26
2023-04-11T18:41:49.734Z,9.18
2023-04-11T18:44:52.314Z,9.23
2023-04-11T18:47:54.951Z,9.15
2023-04-11T18:50:59.128Z,9.12
2023-04-11T18:54:01.828Z,9.04
2023-04-11T18:57:04.016Z,9.09
2023-04-11T19:00:19.750Z,9.02
2023-04-11T19:03:29.218Z,8.79
2023-04-11T19:06:35.721Z,8.76
2023-04-11T19:09:39.426Z,8.80
2023-04-11T19:12:41.785Z,8.82
2023-04-11T19:15:46.022Z,8.76
2023-04-11T19:18:48.120Z,8.68
2023-04-11T19:21:50.362Z,8.70
2023-04-11T19:24:54.176Z,8.68
2023-04-11T19:27:57.040Z,8.50
2023-04-11T19:30:59.373Z,8.60
2023-04-11T19:34:04.599Z,8.57
2023-04-11T19:37:11.023Z,8.58
2023-04-11T19:40:19.262Z,8.43
2023-04-11T19:43:23.529Z,8.39
2023-04-11T19:46:28.080Z,8.34
2023-04-11T19:49:32.194Z,8.21
2023-04-11T19:52:41.531Z,8.07
2023-04-11T19:55:52.365Z,7.92
2023-04-11T19:58:56.045Z,7.77
2023-04-11T20:02:01.693Z,7.95
2023-04-11T20:05:08.786Z,7.86
2023-04-11T20:08:11.047Z,7.97
2023-04-11T20:11:21.066Z,7.99
2023-04-11T20:15:05.299Z,8.06
2023-04-11T20:18:29.601Z,7.86
2023-04-11T20:21:33.859Z,8.03
2023-04-11T20:25:17.203Z,8.14
2023-04-11T20:28:56.155Z,8.03
2023-04-11T20:31:59.264Z,8.08
2023-04-11T20:35:12.922Z,8.08
2023-04-11T20:38:31.448Z,8.05
2023-04-11T20:41:40.700Z,7.94
2023-04-11T20:44:44.329Z,8.07
2023-04-11T20:47:47.719Z,8.03
2023-04-11T20:51:08.798Z,8.06
2023-04-11T20:54:11.226Z,7.87
2023-04-11T20:57:13.248Z,8.02
2023-04-11T21:00:17.242Z,8.01
2023-04-11T21:03:19.654Z,8.00
2023-04-11T21:06:21.708Z,7.74
2023-04-11T21:09:31.909Z,7.86
2023-04-11T21:12:35.041Z,7.57
2023-04-11T21:15:36.965Z,7.64
2023-04-11T21:18:38.908Z,7.55
2023-04-11T21:21:43.693Z,7.57
2023-04-11T21:24:52.009Z,7.54
2023-04-11T21:27:54.040Z,7.62
2023-04-11T21:30:56.063Z,7.63
2023-04-11T21:33:58.578Z,7.62
2023-04-11T21:37:01.125Z,7.40
2023-04-11T21:40:09.394Z,7.38
2023-04-11T21:43:11.834Z,7.39
2023-04-11T21:46:13.767Z,7.36
2023-04-11T21:49:15.768Z,7.50
2023-04-11T21:52:17.784Z,7.48
2023-04-11T21:55:20.002Z,7.57
2023-04-11T21:58:29.037Z,7.41
2023-04-11T22:01:32.150Z,7.56
2023-04-11T22:04:39.120Z,7.47
2023-04-11T22:07:48.943Z,7.42
2023-04-11T22:10:53.316Z,7.36
2023-04-11T22:13:57.534Z,7.35
2023-04-11T22:17:00.945Z,7.30
2023-04-11T22:20:07.443Z,7.19
2023-04-11T22:23:13.867Z,7.14
2023-04-11T22:26:16.539Z,7.19
2023-04-11T22:29:18.839Z,7.36
2023-04-11T22:32:21.293Z,7.21
2023-04-11T22:35:25.943Z,7.23
2023-04-11T22:38:27.886Z,7.19
2023-04-11T22:41:30.577Z,7.07
2023-04-11T22:44:32.428Z,6.83
2023-04-11T22:47:34.608Z,6.85
2023-04-11T22:50:37.351Z,6.68
2023-04-11T22:53:42.148Z,6.56
2023-04-11T22:56:44.099Z,6.57
2023-04-11T22:59:46.416Z,6.62
2023-04-11T23:02:48.718Z,6.66
2023-04-11T23:05:50.661Z,6.61
2023-04-11T23:08:54.083Z,6.72
2023-04-11T23:11:57.153Z,6.83
2023-04-11T23:15:02.268Z,6.85
2023-04-11T23:18:04.422Z,6.78
2023-04-11T23:21:11.360Z,6.93
2023-04-11T23:24:13.340Z,6.85
2023-04-11T23:27:15.283Z,6.63
2023-04-11T23:30:17.642Z,6.79
2023-04-11T23:33:22.132Z,6.69
2023-04-11T23:36:24.215Z,6.72
2023-04-11T23:39:26.434Z,6.66
2023-04-11T23:42:28.381Z,6.71
2023-04-11T23:45:30.797Z,6.77
2023-04-11T23:48:32.667Z,6.79
2023-04-11T23:51:34.548Z,6.76
2023-04-11T23:54:38.280Z,6.62
2023-04-11T23:57:40.623Z,6.50
